sensor_id;sensor_type;location;lat;lon;timestamp;P1;durP1;ratioP1;P2;durP2;ratioP2
69917;SDS011;57203;42.672;23.334;2023-04-24T00:00:02;6.7;;;4.9;;
69917;SDS011;57203;42.672;23.334;2023-04-24T00:01:02;7.8;;;5.3;;
69917;SDS011;57203;42.672;23.334;2023-04-24T00:02:02;6.5;;;5.0;;
69917;SDS011;57203;42.672;23.334;2023-04-24T00:03:02;9.7;;;5.4;;
69917;SDS011;57203;42.672;23.334;2023-04-24T00:04:02;9.7;;;5.1;;
69917;SDS011;57203;42.672;23.334;2023-04-24T00:05:03;8.5;;;5.5;;
69917;SDS011;57203;42.672;23.334;2023-04-24T00:06:03;10.2;;;5.1;;
69917;SDS011;57203;42.672;23.334;2023-04-24T00:07:03;6.9;;;5.9;;
69917;SDS011;57203;42.672;23.334;2023-04-24T00:08:03;6.5;;;4.8;;
69917;SDS011;57203;42.672;23.334;2023-04-24T00:09:03;8.8;;;5.1;;
69917;SDS011;57203;42.672;23.334;2023-04-24T00:10:04;8.8;;;5.3;;
69917;SDS011;57203;42.672;23.334;2023-04-24T00:11:04;8.2;;;4.8;;
69917;SDS011;57203;42.672;23.334;2023-04-24T00:12:04;6.3;;;5.0;;
69917;SDS011;57203;42.672;23.334;2023-04-24T00:13:04;9.3;;;5.4;;
69917;SDS011;57203;42.672;23.334;2023-04-24T00:14:04;9.3;;;4.9;;
69917;SDS011;57203;42.672;23.334;2023-04-24T00:15:05;6.7;;;5.3;;
69917;SDS011;57203;42.672;23.334;2023-04-24T00:16:05;6.7;;;5.0;;
69917;SDS011;57203;42.672;23.334;2023-04-24T00:17:05;9.5;;;4.7;;
69917;SDS011;57203;42.672;23.334;2023-04-24T00:18:05;7.8;;;5.1;;
69917;SDS011;57203;42.672;23.334;2023-04-24T00:19:05;9.0;;;5.5;;
69917;SDS011;57203;42.672;23.334;2023-04-24T00:20:06;8.2;;;4.8;;
69917;SDS011;57203;42.672;23.334;2023-04-24T00:21:06;6.9;;;5.0;;
69917;SDS011;57203;42.672;23.334;2023-04-24T00:23:06;8.4;;;4.6;;
69917;SDS011;57203;42.672;23.334;2023-04-24T00:24:06;5.9;;;4.7;;
69917;SDS011;57203;42.672;23.334;2023-04-24T00:25:07;6.0;;;4.4;;
69917;SDS011;57203;42.672;23.334;2023-04-24T00:26:07;5.6;;;4.3;;
69917;SDS011;57203;42.672;23.334;2023-04-24T00:28:07;5.7;;;4.4;;
69917;SDS011;57203;42.672;23.334;2023-04-24T00:30:08;6.2;;;4.3;;
69917;SDS011;57203;42.672;23.334;2023-04-24T00:32:08;6.0;;;3.9;;
69917;SDS011;57203;42.672;23.334;2023-04-24T00:33:08;5.4;;;3.8;;
69917;SDS011;57203;42.672;23.334;2023-04-24T00:34:09;4.6;;;4.1;;
69917;SDS011;57203;42.672;23.334;2023-04-24T00:35:08;6.3;;;3.7;;
69917;SDS011;57203;42.672;23.334;2023-04-24T00:37:09;4.8;;;3.8;;
69917;SDS011;57203;42.672;23.334;2023-04-24T00:38:09;5.2;;;3.9;;
69917;SDS011;57203;42.672;23.334;2023-04-24T00:39:09;6.0;;;3.8;;
69917;SDS011;57203;42.672;23.334;2023-04-24T00:40:10;6.1;;;4.4;;
69917;SDS011;57203;42.672;23.334;2023-04-24T00:41:09;4.9;;;3.6;;
69917;SDS011;57203;42.672;23.334;2023-04-24T00:42:10;5.5;;;4.2;;
69917;SDS011;57203;42.672;23.334;2023-04-24T00:43:10;7.5;;;3.8;;
69917;SDS011;57203;42.672;23.334;2023-04-24T00:44:10;5.1;;;4.2;;
69917;SDS011;57203;42.672;23.334;2023-04-24T00:45:10;3.9;;;3.3;;
69917;SDS011;57203;42.672;23.334;2023-04-24T00:46:11;3.9;;;4.1;;
69917;SDS011;57203;42.672;23.334;2023-04-24T00:47:11;5.8;;;3.8;;
69917;SDS011;57203;42.672;23.334;2023-04-24T00:48:11;5.9;;;3.7;;
69917;SDS011;57203;42.672;23.334;2023-04-24T00:49:11;4.8;;;3.5;;
69917;SDS011;57203;42.672;23.334;2023-04-24T00:50:11;4.8;;;3.7;;
69917;SDS011;57203;42.672;23.334;2023-04-24T00:51:12;4.6;;;3.2;;
69917;SDS011;57203;42.672;23.334;2023-04-24T00:52:12;4.1;;;3.7;;
69917;SDS011;57203;42.672;23.334;2023-04-24T00:53:12;8.1;;;3.2;;
69917;SDS011;57203;42.672;23.334;2023-04-24T00:54:12;6.1;;;3.6;;
69917;SDS011;57203;42.672;23.334;2023-04-24T00:55:12;4.9;;;3.7;;
69917;SDS011;57203;42.672;23.334;2023-04-24T00:57:13;5.5;;;3.2;;
69917;SDS011;57203;42.672;23.334;2023-04-24T00:58:13;5.0;;;3.4;;
69917;SDS011;57203;42.672;23.334;2023-04-24T01:00:14;5.1;;;3.5;;
69917;SDS011;57203;42.672;23.334;2023-04-24T01:02:14;4.4;;;3.4;;
69917;SDS011;57203;42.672;23.334;2023-04-24T01:03:14;5.4;;;3.8;;
69917;SDS011;57203;42.672;23.334;2023-04-24T01:04:14;5.4;;;3.6;;
69917;SDS011;57203;42.672;23.334;2023-04-24T01:05:15;5.1;;;3.2;;
69917;SDS011;57203;42.672;23.334;2023-04-24T01:06:14;3.8;;;3.6;;
69917;SDS011;57203;42.672;23.334;2023-04-24T01:07:15;5.8;;;3.4;;
69917;SDS011;57203;42.672;23.334;2023-04-24T01:08:15;4.9;;;3.7;;
69917;SDS011;57203;42.672;23.334;2023-04-24T01:09:15;6.7;;;3.5;;
69917;SDS011;57203;42.672;23.334;2023-04-24T01:10:15;5.3;;;4.0;;
69917;SDS011;57203;42.672;23.334;2023-04-24T01:11:15;5.3;;;4.1;;
69917;SDS011;57203;42.672;23.334;2023-04-24T01:12:16;7.3;;;3.8;;
69917;SDS011;57203;42.672;23.334;2023-04-24T01:13:16;7.4;;;4.1;;
69917;SDS011;57203;42.672;23.334;2023-04-24T01:14:16;7.4;;;3.8;;
69917;SDS011;57203;42.672;23.334;2023-04-24T01:15:16;5.5;;;3.7;;
69917;SDS011;57203;42.672;23.334;2023-04-24T01:16:17;5.1;;;4.0;;
69917;SDS011;57203;42.672;23.334;2023-04-24T01:17:17;4.5;;;3.6;;
69917;SDS011;57203;42.672;23.334;2023-04-24T01:18:17;5.4;;;3.5;;
69917;SDS011;57203;42.672;23.334;2023-04-24T01:19:17;5.1;;;3.9;;
69917;SDS011;57203;42.672;23.334;2023-04-24T01:20:17;7.2;;;3.7;;
69917;SDS011;57203;42.672;23.334;2023-04-24T01:21:17;4.9;;;3.5;;
69917;SDS011;57203;42.672;23.334;2023-04-24T01:22:18;5.7;;;3.7;;
69917;SDS011;57203;42.672;23.334;2023-04-24T01:23:18;5.1;;;3.8;;
69917;SDS011;57203;42.672;23.334;2023-04-24T01:24:18;4.3;;;3.5;;
69917;SDS011;57203;42.672;23.334;2023-04-24T01:25:18;6.5;;;3.8;;
69917;SDS011;57203;42.672;23.334;2023-04-24T01:26:19;6.5;;;3.5;;
69917;SDS011;57203;42.672;23.334;2023-04-24T01:27:19;5.5;;;3.7;;
69917;SDS011;57203;42.672;23.334;2023-04-24T01:29:19;5.9;;;3.6;;
69917;SDS011;57203;42.672;23.334;2023-04-24T01:30:19;4.6;;;3.9;;
69917;SDS011;57203;42.672;23.334;2023-04-24T01:31:19;4.6;;;3.7;;
69917;SDS011;57203;42.672;23.334;2023-04-24T01:32:19;5.5;;;3.9;;
69917;SDS011;57203;42.672;23.334;2023-04-24T01:34:20;4.1;;;3.4;;
69917;SDS011;57203;42.672;23.334;2023-04-24T01:35:20;4.1;;;4.0;;
69917;SDS011;57203;42.672;23.334;2023-04-24T01:36:20;6.8;;;4.3;;
69917;SDS011;57203;42.672;23.334;2023-04-24T01:37:20;5.2;;;3.7;;
69917;SDS011;57203;42.672;23.334;2023-04-24T01:38:21;5.3;;;4.1;;
69917;SDS011;57203;42.672;23.334;2023-04-24T01:39:21;6.1;;;3.7;;
69917;SDS011;57203;42.672;23.334;2023-04-24T01:40:21;4.4;;;4.0;;
69917;SDS011;57203;42.672;23.334;2023-04-24T01:41:21;4.4;;;3.7;;
69917;SDS011;57203;42.672;23.334;2023-04-24T01:42:21;4.9;;;4.1;;
69917;SDS011;57203;42.672;23.334;2023-04-24T01:43:21;5.3;;;4.3;;
69917;SDS011;57203;42.672;23.334;2023-04-24T01:44:22;5.3;;;4.1;;
69917;SDS011;57203;42.672;23.334;2023-04-24T01:45:22;4.8;;;3.9;;
69917;SDS011;57203;42.672;23.334;2023-04-24T01:46:22;4.8;;;4.1;;
69917;SDS011;57203;42.672;23.334;2023-04-24T01:47:22;6.5;;;4.2;;
69917;SDS011;57203;42.672;23.334;2023-04-24T01:48:22;4.7;;;4.3;;
69917;SDS011;57203;42.672;23.334;2023-04-24T01:49:23;6.9;;;4.0;;
69917;SDS011;57203;42.672;23.334;2023-04-24T01:50:23;4.4;;;3.8;;
69917;SDS011;57203;42.672;23.334;2023-04-24T01:51:23;4.4;;;4.2;;
69917;SDS011;57203;42.672;23.334;2023-04-24T01:52:23;4.4;;;4.0;;
69917;SDS011;57203;42.672;23.334;2023-04-24T01:53:23;4.7;;;3.7;;
69917;SDS011;57203;42.672;23.334;2023-04-24T01:54:24;4.7;;;4.1;;
69917;SDS011;57203;42.672;23.334;2023-04-24T01:55:24;6.3;;;4.4;;
69917;SDS011;57203;42.672;23.334;2023-04-24T01:56:24;5.5;;;4.1;;
69917;SDS011;57203;42.672;23.334;2023-04-24T01:57:24;5.5;;;4.3;;
69917;SDS011;57203;42.672;23.334;2023-04-24T01:58:24;5.0;;;3.9;;
69917;SDS011;57203;42.672;23.334;2023-04-24T01:59:24;5.9;;;4.9;;
69917;SDS011;57203;42.672;23.334;2023-04-24T02:00:25;6.0;;;4.2;;
69917;SDS011;57203;42.672;23.334;2023-04-24T02:01:25;5.0;;;4.1;;
69917;SDS011;57203;42.672;23.334;2023-04-24T02:02:25;5.7;;;4.2;;
69917;SDS011;57203;42.672;23.334;2023-04-24T02:03:25;7.2;;;4.0;;
69917;SDS011;57203;42.672;23.334;2023-04-24T02:06:26;5.7;;;4.2;;
69917;SDS011;57203;42.672;23.334;2023-04-24T02:07:26;4.8;;;3.9;;
69917;SDS011;57203;42.672;23.334;2023-04-24T02:08:26;6.7;;;4.5;;
69917;SDS011;57203;42.672;23.334;2023-04-24T02:09:26;6.7;;;4.2;;
69917;SDS011;57203;42.672;23.334;2023-04-24T02:10:27;6.1;;;4.3;;
69917;SDS011;57203;42.672;23.334;2023-04-24T02:11:27;5.4;;;4.8;;
69917;SDS011;57203;42.672;23.334;2023-04-24T02:12:27;6.3;;;4.5;;
69917;SDS011;57203;42.672;23.334;2023-04-24T02:13:27;6.1;;;4.4;;
69917;SDS011;57203;42.672;23.334;2023-04-24T02:15:28;6.2;;;4.5;;
69917;SDS011;57203;42.672;23.334;2023-04-24T02:16:28;5.4;;;4.1;;
69917;SDS011;57203;42.672;23.334;2023-04-24T02:17:28;5.1;;;5.0;;
69917;SDS011;57203;42.672;23.334;2023-04-24T02:18:28;7.7;;;4.6;;
69917;SDS011;57203;42.672;23.334;2023-04-24T02:20:29;5.6;;;4.7;;
69917;SDS011;57203;42.672;23.334;2023-04-24T02:22:29;7.1;;;4.2;;
69917;SDS011;57203;42.672;23.334;2023-04-24T02:24:29;7.2;;;4.6;;
69917;SDS011;57203;42.672;23.334;2023-04-24T02:25:29;5.7;;;4.5;;
69917;SDS011;57203;42.672;23.334;2023-04-24T02:26:30;5.7;;;4.2;;
69917;SDS011;57203;42.672;23.334;2023-04-24T02:28:30;4.7;;;4.1;;
69917;SDS011;57203;42.672;23.334;2023-04-24T02:29:30;4.6;;;4.9;;
69917;SDS011;57203;42.672;23.334;2023-04-24T02:30:30;6.4;;;4.5;;
69917;SDS011;57203;42.672;23.334;2023-04-24T02:31:31;5.5;;;4.1;;
69917;SDS011;57203;42.672;23.334;2023-04-24T02:32:31;4.6;;;4.2;;
69917;SDS011;57203;42.672;23.334;2023-04-24T02:34:31;5.1;;;4.3;;
69917;SDS011;57203;42.672;23.334;2023-04-24T02:35:31;5.6;;;4.4;;
69917;SDS011;57203;42.672;23.334;2023-04-24T02:36:32;4.9;;;4.5;;
69917;SDS011;57203;42.672;23.334;2023-04-24T02:37:32;5.2;;;4.4;;
69917;SDS011;57203;42.672;23.334;2023-04-24T02:38:32;5.2;;;4.7;;
69917;SDS011;57203;42.672;23.334;2023-04-24T02:39:32;6.5;;;4.5;;
69917;SDS011;57203;42.672;23.334;2023-04-24T02:40:32;6.6;;;5.2;;
69917;SDS011;57203;42.672;23.334;2023-04-24T02:41:32;7.7;;;4.9;;
69917;SDS011;57203;42.672;23.334;2023-04-24T02:43:33;5.9;;;4.7;;
69917;SDS011;57203;42.672;23.334;2023-04-24T02:44:33;5.9;;;5.1;;
69917;SDS011;57203;42.672;23.334;2023-04-24T02:45:33;8.0;;;4.5;;
69917;SDS011;57203;42.672;23.334;2023-04-24T02:46:33;5.3;;;4.9;;
69917;SDS011;57203;42.672;23.334;2023-04-24T02:47:34;5.5;;;4.5;;
69917;SDS011;57203;42.672;23.334;2023-04-24T02:48:34;6.7;;;4.7;;
69917;SDS011;57203;42.672;23.334;2023-04-24T02:49:34;6.8;;;4.8;;
69917;SDS011;57203;42.672;23.334;2023-04-24T02:50:34;6.8;;;5.1;;
69917;SDS011;57203;42.672;23.334;2023-04-24T02:51:34;6.4;;;5.3;;
69917;SDS011;57203;42.672;23.334;2023-04-24T02:52:34;6.7;;;5.1;;
69917;SDS011;57203;42.672;23.334;2023-04-24T02:53:35;6.0;;;4.8;;
69917;SDS011;57203;42.672;23.334;2023-04-24T02:54:35;6.8;;;4.9;;
69917;SDS011;57203;42.672;23.334;2023-04-24T02:55:35;7.8;;;5.1;;
69917;SDS011;57203;42.672;23.334;2023-04-24T02:56:35;6.9;;;5.7;;
69917;SDS011;57203;42.672;23.334;2023-04-24T02:57:35;9.0;;;4.9;;
69917;SDS011;57203;42.672;23.334;2023-04-24T02:58:36;5.4;;;5.1;;
69917;SDS011;57203;42.672;23.334;2023-04-24T02:59:36;8.6;;;5.4;;
69917;SDS011;57203;42.672;23.334;2023-04-24T03:00:36;8.0;;;5.1;;
69917;SDS011;57203;42.672;23.334;2023-04-24T03:01:36;6.6;;;5.0;;
69917;SDS011;57203;42.672;23.334;2023-04-24T03:02:36;7.1;;;4.9;;
69917;SDS011;57203;42.672;23.334;2023-04-24T03:03:37;7.1;;;5.0;;
69917;SDS011;57203;42.672;23.334;2023-04-24T03:05:37;9.2;;;5.4;;
69917;SDS011;57203;42.672;23.334;2023-04-24T03:07:37;6.8;;;5.0;;
69917;SDS011;57203;42.672;23.334;2023-04-24T03:11:38;6.4;;;4.9;;
69917;SDS011;57203;42.672;23.334;2023-04-24T03:12:38;7.1;;;5.1;;
69917;SDS011;57203;42.672;23.334;2023-04-24T03:13:38;6.9;;;4.7;;
69917;SDS011;57203;42.672;23.334;2023-04-24T03:14:39;6.5;;;4.6;;
69917;SDS011;57203;42.672;23.334;2023-04-24T03:15:39;7.1;;;5.3;;
69917;SDS011;57203;42.672;23.334;2023-04-24T03:16:39;7.8;;;5.2;;
69917;SDS011;57203;42.672;23.334;2023-04-24T03:17:39;6.6;;;4.9;;
69917;SDS011;57203;42.672;23.334;2023-04-24T03:18:39;7.3;;;5.4;;
69917;SDS011;57203;42.672;23.334;2023-04-24T03:19:40;9.0;;;5.5;;
69917;SDS011;57203;42.672;23.334;2023-04-24T03:20:40;7.6;;;5.6;;
69917;SDS011;57203;42.672;23.334;2023-04-24T03:21:40;7.6;;;5.8;;
69917;SDS011;57203;42.672;23.334;2023-04-24T03:22:40;7.2;;;5.4;;
69917;SDS011;57203;42.672;23.334;2023-04-24T03:23:40;6.0;;;5.3;;
69917;SDS011;57203;42.672;23.334;2023-04-24T03:24:41;7.5;;;6.1;;
69917;SDS011;57203;42.672;23.334;2023-04-24T03:25:41;7.5;;;5.8;;
69917;SDS011;57203;42.672;23.334;2023-04-24T03:26:41;7.4;;;5.9;;
69917;SDS011;57203;42.672;23.334;2023-04-24T03:27:41;7.8;;;6.2;;
69917;SDS011;57203;42.672;23.334;2023-04-24T03:28:41;8.6;;;5.6;;
69917;SDS011;57203;42.672;23.334;2023-04-24T03:29:41;8.2;;;5.5;;
69917;SDS011;57203;42.672;23.334;2023-04-24T03:30:42;8.2;;;5.8;;
69917;SDS011;57203;42.672;23.334;2023-04-24T03:31:42;7.7;;;5.3;;
69917;SDS011;57203;42.672;23.334;2023-04-24T03:32:43;7.0;;;5.7;;
69917;SDS011;57203;42.672;23.334;2023-04-24T03:34:42;8.3;;;5.3;;
69917;SDS011;57203;42.672;23.334;2023-04-24T03:35:43;9.2;;;6.1;;
69917;SDS011;57203;42.672;23.334;2023-04-24T03:36:43;8.0;;;5.7;;
69917;SDS011;57203;42.672;23.334;2023-04-24T03:37:43;9.7;;;5.8;;
69917;SDS011;57203;42.672;23.334;2023-04-24T03:38:43;8.2;;;5.6;;
69917;SDS011;57203;42.672;23.334;2023-04-24T03:39:43;7.6;;;5.9;;
69917;SDS011;57203;42.672;23.334;2023-04-24T03:40:43;7.1;;;5.7;;
69917;SDS011;57203;42.672;23.334;2023-04-24T03:41:44;7.1;;;5.5;;
69917;SDS011;57203;42.672;23.334;2023-04-24T03:42:44;10.3;;;5.1;;
69917;SDS011;57203;42.672;23.334;2023-04-24T03:43:44;7.0;;;5.4;;
69917;SDS011;57203;42.672;23.334;2023-04-24T03:44:44;7.0;;;5.6;;
69917;SDS011;57203;42.672;23.334;2023-04-24T03:45:44;7.9;;;5.7;;
69917;SDS011;57203;42.672;23.334;2023-04-24T03:46:45;7.8;;;5.5;;
69917;SDS011;57203;42.672;23.334;2023-04-24T03:47:45;5.8;;;5.0;;
69917;SDS011;57203;42.672;23.334;2023-04-24T03:48:45;5.8;;;6.3;;
69917;SDS011;57203;42.672;23.334;2023-04-24T03:49:45;8.6;;;5.9;;
69917;SDS011;57203;42.672;23.334;2023-04-24T03:50:45;10.5;;;6.2;;
69917;SDS011;57203;42.672;23.334;2023-04-24T03:51:46;10.9;;;6.0;;
69917;SDS011;57203;42.672;23.334;2023-04-24T03:52:46;7.4;;;5.7;;
69917;SDS011;57203;42.672;23.334;2023-04-24T03:53:46;7.2;;;5.6;;
69917;SDS011;57203;42.672;23.334;2023-04-24T03:54:46;7.2;;;5.7;;
69917;SDS011;57203;42.672;23.334;2023-04-24T03:55:46;7.9;;;6.0;;
69917;SDS011;57203;42.672;23.334;2023-04-24T03:56:46;7.7;;;5.7;;
69917;SDS011;57203;42.672;23.334;2023-04-24T03:57:47;6.8;;;6.2;;
69917;SDS011;57203;42.672;23.334;2023-04-24T03:59:47;6.3;;;5.6;;
69917;SDS011;57203;42.672;23.334;2023-04-24T04:00:47;6.3;;;5.8;;
69917;SDS011;57203;42.672;23.334;2023-04-24T04:01:47;9.0;;;6.2;;
69917;SDS011;57203;42.672;23.334;2023-04-24T04:02:48;9.2;;;6.4;;
69917;SDS011;57203;42.672;23.334;2023-04-24T04:03:48;8.7;;;6.2;;
69917;SDS011;57203;42.672;23.334;2023-04-24T04:04:48;10.6;;;6.3;;
69917;SDS011;57203;42.672;23.334;2023-04-24T04:05:48;8.8;;;5.8;;
69917;SDS011;57203;42.672;23.334;2023-04-24T04:06:48;9.2;;;7.1;;
69917;SDS011;57203;42.672;23.334;2023-04-24T04:07:48;10.3;;;6.2;;
69917;SDS011;57203;42.672;23.334;2023-04-24T04:08:49;9.1;;;5.7;;
69917;SDS011;57203;42.672;23.334;2023-04-24T04:09:49;11.1;;;6.2;;
69917;SDS011;57203;42.672;23.334;2023-04-24T04:10:49;9.8;;;6.0;;
69917;SDS011;57203;42.672;23.334;2023-04-24T04:11:49;8.0;;;5.8;;
69917;SDS011;57203;42.672;23.334;2023-04-24T04:12:49;8.0;;;5.6;;
69917;SDS011;57203;42.672;23.334;2023-04-24T04:13:50;8.5;;;6.0;;
69917;SDS011;57203;42.672;23.334;2023-04-24T04:14:50;7.0;;;6.4;;
69917;SDS011;57203;42.672;23.334;2023-04-24T04:15:50;11.1;;;6.3;;
69917;SDS011;57203;42.672;23.334;2023-04-24T04:16:50;7.6;;;6.0;;
69917;SDS011;57203;42.672;23.334;2023-04-24T04:17:50;7.5;;;6.3;;
69917;SDS011;57203;42.672;23.334;2023-04-24T04:18:50;9.5;;;5.9;;
69917;SDS011;57203;42.672;23.334;2023-04-24T04:19:51;8.6;;;6.3;;
69917;SDS011;57203;42.672;23.334;2023-04-24T04:20:51;6.6;;;5.6;;
69917;SDS011;57203;42.672;23.334;2023-04-24T04:22:52;7.3;;;5.8;;
69917;SDS011;57203;42.672;23.334;2023-04-24T04:23:51;9.0;;;5.7;;
69917;SDS011;57203;42.672;23.334;2023-04-24T04:25:52;7.6;;;6.0;;
69917;SDS011;57203;42.672;23.334;2023-04-24T04:26:52;8.7;;;5.5;;
69917;SDS011;57203;42.672;23.334;2023-04-24T04:27:52;6.7;;;6.2;;
69917;SDS011;57203;42.672;23.334;2023-04-24T04:28:52;8.5;;;5.5;;
69917;SDS011;57203;42.672;23.334;2023-04-24T04:29:53;6.7;;;5.9;;
69917;SDS011;57203;42.672;23.334;2023-04-24T04:30:53;7.3;;;4.7;;
69917;SDS011;57203;42.672;23.334;2023-04-24T04:31:53;5.9;;;5.7;;
69917;SDS011;57203;42.672;23.334;2023-04-24T04:32:53;9.2;;;5.1;;
69917;SDS011;57203;42.672;23.334;2023-04-24T04:33:53;6.9;;;4.5;;
69917;SDS011;57203;42.672;23.334;2023-04-24T04:34:54;6.9;;;4.8;;
69917;SDS011;57203;42.672;23.334;2023-04-24T04:35:54;5.7;;;4.6;;
69917;SDS011;57203;42.672;23.334;2023-04-24T04:36:54;5.7;;;4.3;;
69917;SDS011;57203;42.672;23.334;2023-04-24T04:37:54;7.0;;;4.5;;
69917;SDS011;57203;42.672;23.334;2023-04-24T04:38:54;5.8;;;3.9;;
69917;SDS011;57203;42.672;23.334;2023-04-24T04:39:55;5.3;;;4.2;;
69917;SDS011;57203;42.672;23.334;2023-04-24T04:40:55;5.6;;;3.8;;
69917;SDS011;57203;42.672;23.334;2023-04-24T04:41:55;6.4;;;4.5;;
69917;SDS011;57203;42.672;23.334;2023-04-24T04:42:55;6.5;;;4.0;;
69917;SDS011;57203;42.672;23.334;2023-04-24T04:43:55;5.2;;;4.5;;
69917;SDS011;57203;42.672;23.334;2023-04-24T04:44:55;9.6;;;4.1;;
69917;SDS011;57203;42.672;23.334;2023-04-24T04:45:56;5.1;;;3.8;;
69917;SDS011;57203;42.672;23.334;2023-04-24T04:46:56;5.1;;;3.9;;
69917;SDS011;57203;42.672;23.334;2023-04-24T04:47:56;5.4;;;4.0;;
69917;SDS011;57203;42.672;23.334;2023-04-24T04:49:56;6.1;;;3.9;;
69917;SDS011;57203;42.672;23.334;2023-04-24T04:50:57;3.9;;;3.5;;
69917;SDS011;57203;42.672;23.334;2023-04-24T04:51:57;3.9;;;4.3;;
69917;SDS011;57203;42.672;23.334;2023-04-24T04:52:57;10.1;;;4.2;;
69917;SDS011;57203;42.672;23.334;2023-04-24T04:53:57;5.2;;;3.9;;
69917;SDS011;57203;42.672;23.334;2023-04-24T04:54:57;6.7;;;4.1;;
69917;SDS011;57203;42.672;23.334;2023-04-24T04:55:57;6.7;;;3.6;;
69917;SDS011;57203;42.672;23.334;2023-04-24T04:56:58;4.7;;;3.9;;
69917;SDS011;57203;42.672;23.334;2023-04-24T04:57:58;5.7;;;3.7;;
69917;SDS011;57203;42.672;23.334;2023-04-24T04:58:58;6.2;;;3.5;;
69917;SDS011;57203;42.672;23.334;2023-04-24T04:59:58;5.4;;;3.1;;
69917;SDS011;57203;42.672;23.334;2023-04-24T05:00:58;5.7;;;3.9;;
69917;SDS011;57203;42.672;23.334;2023-04-24T05:01:59;5.7;;;3.6;;
69917;SDS011;57203;42.672;23.334;2023-04-24T05:02:59;4.0;;;3.4;;
69917;SDS011;57203;42.672;23.334;2023-04-24T05:04:59;4.4;;;3.3;;
69917;SDS011;57203;42.672;23.334;2023-04-24T05:05:59;4.6;;;3.6;;
69917;SDS011;57203;42.672;23.334;2023-04-24T05:08:00;5.7;;;3.7;;
69917;SDS011;57203;42.672;23.334;2023-04-24T05:09:00;6.4;;;3.5;;
69917;SDS011;57203;42.672;23.334;2023-04-24T05:10:00;5.5;;;3.6;;
69917;SDS011;57203;42.672;23.334;2023-04-24T05:11:00;5.2;;;3.5;;
69917;SDS011;57203;42.672;23.334;2023-04-24T05:12:00;6.5;;;3.4;;
69917;SDS011;57203;42.672;23.334;2023-04-24T05:13:01;4.5;;;3.5;;
69917;SDS011;57203;42.672;23.334;2023-04-24T05:14:01;4.0;;;3.8;;
69917;SDS011;57203;42.672;23.334;2023-04-24T05:15:01;7.4;;;3.5;;
69917;SDS011;57203;42.672;23.334;2023-04-24T05:16:01;5.2;;;3.6;;
69917;SDS011;57203;42.672;23.334;2023-04-24T05:17:01;5.7;;;3.5;;
69917;SDS011;57203;42.672;23.334;2023-04-24T05:18:02;7.2;;;3.6;;
69917;SDS011;57203;42.672;23.334;2023-04-24T05:19:02;6.9;;;3.8;;
69917;SDS011;57203;42.672;23.334;2023-04-24T05:20:02;4.7;;;3.5;;
69917;SDS011;57203;42.672;23.334;2023-04-24T05:21:02;5.5;;;3.7;;
69917;SDS011;57203;42.672;23.334;2023-04-24T05:22:02;5.5;;;4.0;;
69917;SDS011;57203;42.672;23.334;2023-04-24T05:23:02;7.4;;;4.1;;
69917;SDS011;57203;42.672;23.334;2023-04-24T05:24:03;6.3;;;3.7;;
69917;SDS011;57203;42.672;23.334;2023-04-24T05:25:03;6.3;;;3.4;;
69917;SDS011;57203;42.672;23.334;2023-04-24T05:26:03;6.7;;;4.2;;
69917;SDS011;57203;42.672;23.334;2023-04-24T05:27:03;6.7;;;3.5;;
69917;SDS011;57203;42.672;23.334;2023-04-24T05:28:03;4.4;;;4.0;;
69917;SDS011;57203;42.672;23.334;2023-04-24T05:29:04;4.4;;;3.9;;
69917;SDS011;57203;42.672;23.334;2023-04-24T05:31:04;6.2;;;4.7;;
69917;SDS011;57203;42.672;23.334;2023-04-24T05:32:04;6.2;;;4.2;;
69917;SDS011;57203;42.672;23.334;2023-04-24T05:33:04;5.9;;;4.5;;
69917;SDS011;57203;42.672;23.334;2023-04-24T05:34:05;5.9;;;4.2;;
69917;SDS011;57203;42.672;23.334;2023-04-24T05:36:05;6.1;;;4.4;;
69917;SDS011;57203;42.672;23.334;2023-04-24T05:37:05;6.1;;;4.3;;
69917;SDS011;57203;42.672;23.334;2023-04-24T05:38:05;5.2;;;4.5;;
69917;SDS011;57203;42.672;23.334;2023-04-24T05:40:06;6.4;;;5.8;;
69917;SDS011;57203;42.672;23.334;2023-04-24T05:41:06;9.0;;;4.4;;
69917;SDS011;57203;42.672;23.334;2023-04-24T05:42:06;6.2;;;5.0;;
69917;SDS011;57203;42.672;23.334;2023-04-24T05:43:06;7.0;;;4.6;;
69917;SDS011;57203;42.672;23.334;2023-04-24T05:44:07;6.5;;;4.5;;
69917;SDS011;57203;42.672;23.334;2023-04-24T05:45:07;7.1;;;4.8;;
69917;SDS011;57203;42.672;23.334;2023-04-24T05:46:07;7.8;;;4.6;;
69917;SDS011;57203;42.672;23.334;2023-04-24T05:47:07;6.8;;;4.0;;
69917;SDS011;57203;42.672;23.334;2023-04-24T05:48:07;4.9;;;4.5;;
69917;SDS011;57203;42.672;23.334;2023-04-24T05:49:07;6.1;;;4.6;;
69917;SDS011;57203;42.672;23.334;2023-04-24T05:50:08;4.9;;;4.3;;
69917;SDS011;57203;42.672;23.334;2023-04-24T05:51:08;5.9;;;4.5;;
69917;SDS011;57203;42.672;23.334;2023-04-24T05:52:08;5.9;;;4.6;;
69917;SDS011;57203;42.672;23.334;2023-04-24T05:53:08;7.0;;;5.5;;
69917;SDS011;57203;42.672;23.334;2023-04-24T05:54:08;9.2;;;5.3;;
69917;SDS011;57203;42.672;23.334;2023-04-24T05:55:08;9.0;;;6.1;;
69917;SDS011;57203;42.672;23.334;2023-04-24T05:56:09;7.9;;;5.5;;
69917;SDS011;57203;42.672;23.334;2023-04-24T05:57:09;8.6;;;5.0;;
69917;SDS011;57203;42.672;23.334;2023-04-24T05:58:09;5.8;;;5.4;;
69917;SDS011;57203;42.672;23.334;2023-04-24T05:59:09;7.4;;;5.7;;
69917;SDS011;57203;42.672;23.334;2023-04-24T06:00:10;7.4;;;5.1;;
69917;SDS011;57203;42.672;23.334;2023-04-24T06:01:10;8.9;;;5.3;;
69917;SDS011;57203;42.672;23.334;2023-04-24T06:02:10;8.9;;;5.7;;
69917;SDS011;57203;42.672;23.334;2023-04-24T06:03:10;9.9;;;5.4;;
69917;SDS011;57203;42.672;23.334;2023-04-24T06:04:11;8.2;;;5.2;;
69917;SDS011;57203;42.672;23.334;2023-04-24T06:05:10;6.8;;;5.0;;
69917;SDS011;57203;42.672;23.334;2023-04-24T06:06:11;7.9;;;5.3;;
69917;SDS011;57203;42.672;23.334;2023-04-24T06:07:11;7.0;;;5.2;;
69917;SDS011;57203;42.672;23.334;2023-04-24T06:08:11;6.9;;;5.4;;
69917;SDS011;57203;42.672;23.334;2023-04-24T06:10:11;9.3;;;5.7;;
69917;SDS011;57203;42.672;23.334;2023-04-24T06:11:12;7.2;;;6.2;;
69917;SDS011;57203;42.672;23.334;2023-04-24T06:12:12;8.6;;;6.1;;
69917;SDS011;57203;42.672;23.334;2023-04-24T06:13:12;8.3;;;6.2;;
69917;SDS011;57203;42.672;23.334;2023-04-24T06:14:12;9.4;;;5.8;;
69917;SDS011;57203;42.672;23.334;2023-04-24T06:16:12;7.4;;;5.7;;
69917;SDS011;57203;42.672;23.334;2023-04-24T06:17:13;7.5;;;6.0;;
69917;SDS011;57203;42.672;23.334;2023-04-24T06:18:13;7.3;;;5.4;;
69917;SDS011;57203;42.672;23.334;2023-04-24T06:19:13;7.9;;;5.7;;
69917;SDS011;57203;42.672;23.334;2023-04-24T06:20:13;8.3;;;6.1;;
69917;SDS011;57203;42.672;23.334;2023-04-24T06:21:14;8.4;;;5.4;;
69917;SDS011;57203;42.672;23.334;2023-04-24T06:22:14;7.2;;;5.5;;
69917;SDS011;57203;42.672;23.334;2023-04-24T06:23:14;7.6;;;5.9;;
69917;SDS011;57203;42.672;23.334;2023-04-24T06:26:14;9.0;;;6.0;;
69917;SDS011;57203;42.672;23.334;2023-04-24T06:27:15;9.3;;;6.1;;
69917;SDS011;57203;42.672;23.334;2023-04-24T06:28:15;7.6;;;5.8;;
69917;SDS011;57203;42.672;23.334;2023-04-24T06:29:15;8.6;;;5.7;;
69917;SDS011;57203;42.672;23.334;2023-04-24T06:30:15;8.1;;;5.9;;
69917;SDS011;57203;42.672;23.334;2023-04-24T06:32:16;8.6;;;6.1;;
69917;SDS011;57203;42.672;23.334;2023-04-24T06:33:16;8.2;;;5.9;;
69917;SDS011;57203;42.672;23.334;2023-04-24T06:34:16;8.0;;;5.5;;
69917;SDS011;57203;42.672;23.334;2023-04-24T06:35:16;9.2;;;6.1;;
69917;SDS011;57203;42.672;23.334;2023-04-24T06:36:16;7.0;;;5.3;;
69917;SDS011;57203;42.672;23.334;2023-04-24T06:37:17;7.0;;;5.8;;
69917;SDS011;57203;42.672;23.334;2023-04-24T06:38:17;8.1;;;6.2;;
69917;SDS011;57203;42.672;23.334;2023-04-24T06:39:17;8.5;;;5.8;;
69917;SDS011;57203;42.672;23.334;2023-04-24T06:40:17;9.0;;;6.0;;
69917;SDS011;57203;42.672;23.334;2023-04-24T06:41:17;9.0;;;6.4;;
69917;SDS011;57203;42.672;23.334;2023-04-24T06:42:17;8.6;;;5.7;;
69917;SDS011;57203;42.672;23.334;2023-04-24T06:44:18;8.2;;;5.6;;
69917;SDS011;57203;42.672;23.334;2023-04-24T06:45:18;9.6;;;5.8;;
69917;SDS011;57203;42.672;23.334;2023-04-24T06:46:18;9.6;;;5.5;;
69917;SDS011;57203;42.672;23.334;2023-04-24T06:47:18;7.6;;;5.9;;